createdAt,value
2023-05-06T00:00:53.348Z,40.5
2023-05-06T00:05:53.339Z,40.5
2023-05-06T00:10:53.336Z,38.7
2023-05-06T00:15:53.281Z,38.7
2023-05-06T00:20:53.313Z,38.7
2023-05-06T00:25:53.357Z,40.5
2023-05-06T00:30:53.336Z,40.5
2023-05-06T00:35:53.352Z,40.5
2023-05-06T00:40:53.316Z,40.5
2023-05-06T00:45:53.359Z,40.5
2023-05-06T00:50:53.311Z,39.3
2023-05-06T00:55:53.656Z,39.3
2023-05-06T01:00:53.402Z,39.3
2023-05-06T01:05:53.340Z,41.5
2023-05-06T01:10:53.350Z,42.9
2023-05-06T01:15:53.372Z,44.3
2023-05-06T01:20:53.339Z,45.8
2023-05-06T01:25:53.381Z,47.7
2023-05-06T01:30:53.365Z,48.7
2023-05-06T01:35:53.383Z,49.3
2023-05-06T01:40:53.359Z,52.8
2023-05-06T01:45:53.540Z,56
2023-05-06T01:50:53.368Z,58.9
2023-05-06T01:55:53.372Z,59.3
2023-05-06T02:00:53.337Z,59.3
2023-05-06T02:05:53.369Z,59.3
2023-05-06T02:10:53.384Z,59.3
2023-05-06T02:15:53.369Z,57.7
2023-05-06T02:20:53.376Z,54.7
2023-05-06T02:25:53.374Z,54.7
2023-05-06T02:30:53.375Z,53.2
2023-05-06T02:35:53.384Z,54.6
2023-05-06T02:40:53.392Z,54.7
2023-05-06T02:45:53.440Z,54.6
2023-05-06T02:50:53.396Z,54.6
2023-05-06T02:55:53.406Z,56.5
2023-05-06T03:00:53.406Z,56.5
2023-05-06T03:05:53.378Z,60.5
2023-05-06T03:10:53.408Z,63.1
2023-05-06T03:15:53.361Z,70.1
2023-05-06T03:20:53.365Z,71.2
2023-05-06T03:25:53.326Z,71.2
2023-05-06T03:30:53.381Z,71.2
2023-05-06T03:35:53.375Z,71.2
2023-05-06T03:40:53.380Z,71.2
2023-05-06T03:45:53.412Z,69.3
2023-05-06T03:50:53.357Z,69.3
2023-05-06T03:55:53.379Z,69.3
2023-05-06T04:00:53.402Z,74.9
2023-05-06T04:05:53.394Z,75.6
2023-05-06T04:10:53.387Z,79.2
2023-05-06T04:15:53.386Z,81.8
2023-05-06T04:20:53.372Z,85.1
2023-05-06T04:25:53.382Z,89.4
2023-05-06T04:30:53.380Z,89.4
2023-05-06T04:35:53.411Z,91.4
2023-05-06T04:40:53.423Z,91.4
2023-05-06T04:45:53.391Z,91.4
2023-05-06T04:50:53.378Z,91.4
2023-05-06T04:55:53.438Z,92.1
2023-05-06T05:00:53.404Z,92.7
2023-05-06T05:05:53.392Z,94.2
2023-05-06T05:10:53.390Z,97.9
2023-05-06T05:15:53.392Z,97.9
2023-05-06T05:20:53.409Z,96.9
2023-05-06T05:25:53.452Z,96.9
2023-05-06T05:30:53.498Z,92.7
2023-05-06T05:35:53.377Z,91.9
2023-05-06T05:40:53.442Z,91.2
2023-05-06T05:45:53.393Z,90.6
2023-05-06T05:50:53.396Z,86
2023-05-06T05:55:54.117Z,83.5
2023-05-06T06:00:53.394Z,78.9
2023-05-06T06:05:53.386Z,78.8
2023-05-06T06:10:53.408Z,78.7
2023-05-06T06:15:53.455Z,73.6
2023-05-06T06:20:54.346Z,73.6
2023-05-06T06:25:53.447Z,74.3
2023-05-06T06:30:53.397Z,70.8
2023-05-06T06:35:53.387Z,70.8
2023-05-06T06:40:53.386Z,73.9
2023-05-06T06:45:53.414Z,73.9
2023-05-06T06:50:53.434Z,73.9
2023-05-06T06:55:53.417Z,69.4
2023-05-06T07:00:53.425Z,49.3
2023-05-06T07:05:53.654Z,47.7
2023-05-06T07:10:53.422Z,28.2
2023-05-06T07:15:53.397Z,28.2
2023-05-06T07:20:53.443Z,23.7
2023-05-06T07:25:53.425Z,23.1
2023-05-06T07:30:53.449Z,22.7
2023-05-06T07:35:53.448Z,22.7
2023-05-06T07:40:53.423Z,17.3
2023-05-06T07:45:53.494Z,15
2023-05-06T07:50:53.427Z,15
2023-05-06T07:55:53.418Z,14.2
2023-05-06T08:00:53.419Z,13.7
2023-05-06T08:05:53.444Z,13.1
2023-05-06T08:10:53.460Z,12.7
2023-05-06T08:15:53.416Z,12.7
2023-05-06T08:20:53.368Z,12.7
2023-05-06T08:25:53.484Z,12.7
2023-05-06T08:30:53.474Z,12.7
2023-05-06T08:35:53.457Z,12.8
2023-05-06T08:40:53.461Z,13.7
2023-05-06T08:45:53.493Z,13.7
2023-05-06T08:50:53.482Z,13.7
2023-05-06T08:55:53.505Z,13.2
2023-05-06T09:00:53.448Z,13.2
2023-05-06T09:05:53.481Z,13.2
2023-05-06T09:10:53.451Z,13
2023-05-06T09:15:53.472Z,12.2
2023-05-06T09:20:53.473Z,12.2
2023-05-06T09:25:53.423Z,11.6
2023-05-06T09:30:53.493Z,11.6
2023-05-06T09:35:53.479Z,9.5
2023-05-06T09:40:53.428Z,9.4
2023-05-06T09:45:53.448Z,9.2
2023-05-06T09:50:53.484Z,9.2
2023-05-06T09:55:53.452Z,9.2
2023-05-06T10:00:53.442Z,9.2
2023-05-06T10:05:53.467Z,9.2
2023-05-06T10:10:53.442Z,7.9
2023-05-06T10:15:53.536Z,7.5
2023-05-06T10:20:53.490Z,7.5
2023-05-06T10:25:53.470Z,7.3
2023-05-06T10:30:53.456Z,7.3
2023-05-06T10:35:53.436Z,7.3
2023-05-06T10:40:53.507Z,7.3
2023-05-06T10:45:53.496Z,7.3
2023-05-06T10:50:53.442Z,8
2023-05-06T10:55:53.484Z,9
2023-05-06T11:00:59.551Z,9
2023-05-06T11:05:53.456Z,8
2023-05-06T11:15:53.444Z,7.7
2023-05-06T11:20:53.499Z,7.4
2023-05-06T11:25:53.464Z,7.7
2023-05-06T11:30:53.498Z,7.4
2023-05-06T11:40:57.555Z,6.2
2023-05-06T11:45:57.504Z,6.2
2023-05-06T11:50:57.466Z,6
2023-05-06T12:00:57.503Z,3.9
2023-05-06T12:05:57.529Z,3.9
2023-05-06T12:10:57.536Z,3.9
2023-05-06T12:15:57.526Z,3.9
2023-05-06T12:20:57.757Z,3.9
2023-05-06T12:25:57.636Z,4.4
2023-05-06T12:30:57.536Z,5.7
2023-05-06T12:35:57.505Z,7.4
2023-05-06T12:40:57.496Z,7.4
2023-05-06T12:45:58.529Z,7.4
2023-05-06T12:50:57.518Z,7.4
2023-05-06T12:55:57.483Z,7.4
2023-05-06T13:00:57.546Z,4.4
2023-05-06T13:05:57.569Z,4.2
2023-05-06T13:10:57.616Z,3.9
2023-05-06T13:15:57.566Z,3.9
2023-05-06T13:20:57.535Z,4.2
2023-05-06T13:26:05.057Z,4.2
2023-05-06T13:30:57.536Z,4.2
2023-05-06T13:35:57.546Z,3.9
2023-05-06T13:40:57.550Z,3.9
2023-05-06T13:45:57.622Z,3.9
2023-05-06T13:50:57.597Z,3.9
2023-05-06T13:55:57.516Z,3.5
2023-05-06T14:00:57.546Z,3.2
2023-05-06T14:05:57.601Z,3.2
2023-05-06T14:10:57.554Z,2.9
2023-05-06T14:15:57.567Z,2.9
2023-05-06T14:20:57.520Z,2.9
2023-05-06T14:25:57.537Z,2.9
2023-05-06T14:30:57.581Z,3.5
2023-05-06T14:35:57.592Z,4.1
2023-05-06T14:41:00.594Z,4.1
2023-05-06T14:45:57.604Z,4.1
2023-05-06T14:50:57.560Z,3.5
2023-05-06T14:55:57.588Z,2.4
2023-05-06T15:00:57.610Z,2.4
2023-05-06T15:05:57.576Z,2.4
2023-05-06T15:10:57.527Z,2.4
2023-05-06T15:15:57.534Z,2.7
2023-05-06T15:20:57.549Z,3.1
2023-05-06T15:25:57.557Z,4.3
2023-05-06T15:30:57.566Z,4.5
2023-05-06T15:35:57.531Z,4.5
2023-05-06T15:40:57.519Z,4.3
2023-05-06T15:46:00.657Z,3.5
2023-05-06T15:50:57.570Z,3.5
2023-05-06T15:56:11.960Z,2.5
2023-05-06T16:00:57.606Z,2.5
2023-05-06T16:05:57.597Z,1.9
2023-05-06T16:10:57.558Z,1.9
2023-05-06T16:15:58.779Z,2.1
2023-05-06T16:20:57.600Z,2.3
2023-05-06T16:25:57.634Z,2.3
2023-05-06T16:30:57.621Z,2.5
2023-05-06T16:35:57.602Z,2.5
2023-05-06T16:40:57.794Z,2.8
2023-05-06T16:45:57.556Z,2.8
2023-05-06T16:50:57.578Z,2.8
2023-05-06T16:55:57.559Z,3.2
2023-05-06T17:00:57.902Z,3.2
2023-05-06T17:05:57.640Z,3.2
2023-05-06T17:10:57.599Z,2.8
2023-05-06T17:15:57.604Z,2.8
2023-05-06T17:20:57.599Z,2.8
2023-05-06T17:25:57.844Z,2.8
2023-05-06T17:30:57.701Z,2.8
2023-05-06T17:35:57.612Z,2.7
2023-05-06T17:40:57.637Z,2.6
2023-05-06T17:45:57.580Z,2.6
2023-05-06T17:50:58.643Z,2.6
2023-05-06T17:55:57.602Z,2.3
2023-05-06T18:00:57.624Z,2.3
2023-05-06T18:15:57.615Z,2.3
2023-05-06T18:20:57.624Z,2.3
2023-05-06T18:25:57.642Z,2.3
2023-05-06T18:30:57.624Z,2.3
2023-05-06T18:35:57.677Z,3.2
2023-05-06T18:51:01.419Z,3.9
2023-05-06T19:06:01.291Z,4.1
2023-05-06T19:11:01.371Z,5.1
2023-05-06T19:16:01.560Z,5.9
2023-05-06T19:21:01.297Z,6.5
2023-05-06T19:26:01.297Z,6.6
2023-05-06T19:31:01.484Z,6.6
2023-05-06T19:36:02.309Z,6.6
2023-05-06T19:41:01.298Z,6.9
2023-05-06T19:46:01.313Z,7.3
2023-05-06T19:51:01.302Z,7.3
2023-05-06T19:56:01.315Z,6.6
2023-05-06T20:01:01.363Z,5.7
2023-05-06T20:06:01.312Z,5.9
2023-05-06T20:11:01.357Z,5.9
2023-05-06T20:16:01.450Z,5.9
2023-05-06T20:21:01.366Z,5.7
2023-05-06T20:26:01.324Z,5.7
2023-05-06T20:31:01.320Z,5.6
2023-05-06T20:36:01.346Z,5.9
2023-05-06T20:41:01.365Z,5.6
2023-05-06T20:46:01.374Z,5.6
2023-05-06T20:51:01.345Z,5.6
2023-05-06T20:56:01.317Z,7.2
2023-05-06T21:01:01.340Z,7.8
2023-05-06T21:06:01.340Z,8.3
2023-05-06T21:11:01.311Z,8.6
2023-05-06T21:16:01.363Z,9.5
2023-05-06T21:21:01.350Z,9.9
2023-05-06T21:26:01.387Z,9.9
2023-05-06T21:31:01.341Z,9.9
2023-05-06T21:36:01.285Z,9.9
2023-05-06T21:41:01.405Z,9.5
2023-05-06T21:46:01.394Z,9.5
2023-05-06T21:51:01.357Z,9.2
2023-05-06T21:56:01.338Z,8.9
2023-05-06T22:01:01.401Z,8.1
2023-05-06T22:06:01.341Z,7.2
2023-05-06T22:11:01.382Z,7.2
2023-05-06T22:16:01.338Z,7.2
2023-05-06T22:21:01.330Z,6.9
2023-05-06T22:26:01.316Z,6.9
2023-05-06T22:31:01.386Z,7.7
2023-05-06T22:36:01.374Z,8.4
2023-05-06T22:41:01.357Z,9.1
2023-05-06T22:46:01.362Z,9.1
2023-05-06T22:51:01.335Z,9.1
2023-05-06T22:56:01.338Z,9.1
2023-05-06T23:01:01.444Z,7.8
2023-05-06T23:06:01.378Z,7.8
2023-05-06T23:11:01.362Z,7.8
2023-05-06T23:16:01.366Z,7.4
2023-05-06T23:21:01.343Z,7.4
2023-05-06T23:26:01.374Z,8.3
2023-05-06T23:31:01.383Z,8.4
2023-05-06T23:36:01.384Z,10.5
2023-05-06T23:41:01.376Z,9.7
2023-05-06T23:46:01.392Z,10.1
2023-05-06T23:51:01.392Z,10.1
2023-05-06T23:56:01.364Z,10.1
